createdAt,value
2023-04-10T00:00:15.560Z,77.31
2023-04-10T00:01:20.470Z,77.35
2023-04-10T00:02:40.165Z,77.35
2023-04-10T00:03:44.150Z,77.35
2023-04-10T00:04:47.821Z,77.45
2023-04-10T00:05:50.517Z,77.47
2023-04-10T00:06:59.967Z,77.36
2023-04-10T00:08:04.437Z,77.34
2023-04-10T00:09:11.421Z,77.48
2023-04-10T00:10:16.383Z,77.51
2023-04-10T00:11:20.711Z,77.47
2023-04-10T00:12:25.165Z,77.49
2023-04-10T00:13:31.603Z,77.50
2023-04-10T00:14:36.547Z,77.46
2023-04-10T00:15:41.243Z,77.58
2023-04-10T00:16:44.667Z,77.64
2023-04-10T00:17:52.339Z,77.60
2023-04-10T00:18:56.115Z,77.61
2023-04-10T00:20:01.273Z,77.43
2023-04-10T00:21:07.066Z,77.37
2023-04-10T00:22:13.833Z,77.46
2023-04-10T00:23:16.656Z,77.44
2023-04-10T00:24:21.636Z,77.53
2023-04-10T00:25:24.601Z,77.56
2023-04-10T00:26:29.505Z,77.58
2023-04-10T00:27:35.552Z,77.48
2023-04-10T00:28:42.112Z,77.47
2023-04-10T00:29:47.819Z,77.48
2023-04-10T00:30:57.785Z,77.53
2023-04-10T00:32:02.200Z,77.48
2023-04-10T00:33:06.680Z,77.47
2023-04-10T00:34:12.418Z,77.47
2023-04-10T00:35:17.633Z,77.43
2023-04-10T00:36:25.263Z,77.35
2023-04-10T00:37:32.436Z,77.41
2023-04-10T00:38:36.557Z,77.53
2023-04-10T00:39:45.154Z,77.38
2023-04-10T00:40:54.002Z,77.47
2023-04-10T00:41:59.036Z,77.49
2023-04-10T00:43:02.460Z,77.43
2023-04-10T00:44:04.964Z,77.47
2023-04-10T00:45:10.044Z,77.57
2023-04-10T00:46:14.022Z,77.57
2023-04-10T00:47:22.410Z,77.53
2023-04-10T00:48:26.931Z,77.45
2023-04-10T00:49:32.251Z,77.42
2023-04-10T00:50:34.646Z,77.52
2023-04-10T00:51:37.914Z,77.60
2023-04-10T00:52:45.711Z,77.58
2023-04-10T00:53:51.869Z,77.69
2023-04-10T00:54:57.795Z,77.60
2023-04-10T00:56:05.424Z,77.66
2023-04-10T00:57:10.346Z,77.63
2023-04-10T00:58:14.983Z,77.66
2023-04-10T00:59:23.003Z,77.60
2023-04-10T01:00:31.181Z,77.54
2023-04-10T01:01:36.495Z,77.48
2023-04-10T01:02:45.076Z,77.56
2023-04-10T01:03:51.645Z,77.54
2023-04-10T01:04:59.462Z,77.63
2023-04-10T01:06:38.390Z,77.55
2023-04-10T01:08:00.998Z,77.54
2023-04-10T01:09:16.191Z,77.35
2023-04-10T01:10:26.178Z,77.35
2023-04-10T01:13:31.624Z,77.42
2023-04-10T01:14:57.076Z,77.59
2023-04-10T01:16:02.917Z,77.53
2023-04-10T01:18:32.892Z,77.54
2023-04-10T01:19:58.892Z,77.68
2023-04-10T01:21:04.523Z,77.48
2023-04-10T01:22:07.805Z,77.25
2023-04-10T01:23:22.733Z,77.31
2023-04-10T01:24:43.958Z,77.22
2023-04-10T01:25:55.994Z,77.27
2023-04-10T01:28:58.059Z,77.57
2023-04-10T01:30:02.173Z,77.84
2023-04-10T01:31:08.511Z,77.89
2023-04-10T01:32:15.274Z,77.90
2023-04-10T01:33:20.805Z,77.93
2023-04-10T01:35:41.827Z,77.92
2023-04-10T01:38:08.946Z,78.15
2023-04-10T01:39:11.999Z,78.39
2023-04-10T01:40:18.090Z,78.40
2023-04-10T01:41:22.230Z,78.37
2023-04-10T01:42:26.232Z,78.42
2023-04-10T01:43:31.308Z,78.62
2023-04-10T01:44:36.005Z,78.52
2023-04-10T01:45:40.247Z,78.46
2023-04-10T01:46:45.750Z,78.56
2023-04-10T01:47:49.740Z,78.54
2023-04-10T01:48:54.878Z,78.63
2023-04-10T01:49:58.772Z,78.60
2023-04-10T01:51:03.753Z,78.59
2023-04-10T01:52:07.418Z,78.58
2023-04-10T01:53:10.547Z,78.55
2023-04-10T01:54:13.762Z,78.66
2023-04-10T01:55:17.069Z,78.87
2023-04-10T01:56:21.836Z,78.93
2023-04-10T01:57:25.122Z,79.03
2023-04-10T01:58:29.893Z,78.99
2023-04-10T01:59:32.875Z,78.99
2023-04-10T02:01:49.056Z,78.94
2023-04-10T02:02:52.754Z,79.06
2023-04-10T02:03:57.913Z,79.12
2023-04-10T02:05:01.303Z,79.09
2023-04-10T02:06:10.236Z,79.06
2023-04-10T02:07:19.156Z,79.02
2023-04-10T02:09:43.823Z,78.98
2023-04-10T02:12:11.341Z,78.95
2023-04-10T02:13:16.971Z,79.04
2023-04-10T02:14:21.730Z,79.06
2023-04-10T02:15:27.479Z,78.99
2023-04-10T02:16:31.860Z,79.01
2023-04-10T02:17:36.056Z,79.02
2023-04-10T02:18:42.057Z,79.00
2023-04-10T02:19:47.866Z,78.87
2023-04-10T02:20:50.415Z,78.80
2023-04-10T02:21:53.842Z,78.84
2023-04-10T02:22:56.733Z,78.81
2023-04-10T02:24:00.754Z,78.74
2023-04-10T02:25:04.808Z,78.69
2023-04-10T02:26:09.065Z,78.63
2023-04-10T02:41:39.015Z,80.45
2023-04-10T02:42:41.382Z,80.30
2023-04-10T02:43:43.641Z,80.21
2023-04-10T02:44:47.410Z,80.16
2023-04-10T02:45:50.210Z,80.14
2023-04-10T02:46:54.772Z,80.14
2023-04-10T02:47:57.621Z,80.08
2023-04-10T02:49:00.586Z,80.05
2023-04-10T02:50:03.509Z,80.04
2023-04-10T02:51:07.440Z,80.02
2023-04-10T02:52:10.824Z,79.94
2023-04-10T02:53:15.136Z,79.86
2023-04-10T02:54:17.371Z,79.83
2023-04-10T02:55:19.653Z,79.87
2023-04-10T02:56:22.390Z,79.79
2023-04-10T02:57:25.104Z,79.63
2023-04-10T02:58:27.858Z,79.51
2023-04-10T02:59:30.381Z,79.44
2023-04-10T03:00:33.480Z,79.37
2023-04-10T03:01:40.492Z,79.31
2023-04-10T03:02:42.814Z,79.21
2023-04-10T03:03:47.061Z,79.25
2023-04-10T03:04:51.341Z,79.27
2023-04-10T03:05:53.820Z,79.16
2023-04-10T03:06:57.918Z,79.12
2023-04-10T03:08:00.598Z,79.17
2023-04-10T03:09:02.985Z,79.13
2023-04-10T03:10:06.205Z,79.05
2023-04-10T03:11:08.472Z,78.98
2023-04-10T03:12:10.831Z,79.00
2023-04-10T03:13:13.520Z,79.05
2023-04-10T03:14:16.317Z,79.12
2023-04-10T03:15:18.408Z,79.23
2023-04-10T03:16:20.685Z,79.29
2023-04-10T03:17:23.611Z,79.28
2023-04-10T03:18:26.256Z,79.28
2023-04-10T03:19:29.170Z,79.30
2023-04-10T03:20:32.835Z,79.35
2023-04-10T03:21:35.175Z,79.23
2023-04-10T03:22:39.205Z,79.23
2023-04-10T03:23:42.216Z,79.16
2023-04-10T03:24:46.699Z,79.07
2023-04-10T03:25:51.828Z,79.02
2023-04-10T03:26:54.036Z,79.05
2023-04-10T03:27:56.092Z,78.98
2023-04-10T03:28:58.830Z,78.85
2023-04-10T03:30:01.097Z,78.74
2023-04-10T03:31:05.186Z,78.57
2023-04-10T03:32:10.087Z,78.47
2023-04-10T03:33:12.399Z,78.46
2023-04-10T03:34:14.696Z,78.35
2023-04-10T03:35:17.491Z,78.26
2023-04-10T03:36:19.701Z,78.20
2023-04-10T03:37:23.314Z,78.26
2023-04-10T03:38:25.576Z,78.26
2023-04-10T03:39:28.276Z,78.26
2023-04-10T03:40:30.655Z,78.19
2023-04-10T03:41:33.360Z,78.21
2023-04-10T03:42:36.520Z,78.22
2023-04-10T03:43:39.755Z,78.23
2023-04-10T03:44:43.115Z,78.26
2023-04-10T03:45:45.654Z,78.25
2023-04-10T03:46:49.123Z,78.23
2023-04-10T03:47:52.853Z,78.30
2023-04-10T03:48:55.366Z,78.33
2023-04-10T03:49:58.051Z,78.27
2023-04-10T03:51:02.849Z,78.12
2023-04-10T03:52:05.232Z,78.08
2023-04-10T03:53:08.004Z,78.26
2023-04-10T03:54:10.244Z,78.27
2023-04-10T03:55:12.552Z,78.30
2023-04-10T03:56:15.312Z,78.31
2023-04-10T03:57:17.482Z,78.28
2023-04-10T03:58:20.265Z,78.17
2023-04-10T03:59:31.039Z,78.08
2023-04-10T04:00:27.199Z,78.14
2023-04-10T04:01:31.339Z,78.13
2023-04-10T04:02:38.644Z,78.12
2023-04-10T04:03:41.926Z,77.99
2023-04-10T04:05:03.124Z,78.01
2023-04-10T04:06:16.531Z,78.02
2023-04-10T04:07:23.512Z,78.05
2023-04-10T04:08:39.483Z,77.98
2023-04-10T04:09:43.854Z,77.84
2023-04-10T04:10:50.857Z,77.91
2023-04-10T04:12:00.890Z,77.96
2023-04-10T04:13:20.985Z,77.92
2023-04-10T04:14:30.694Z,77.94
2023-04-10T04:15:34.809Z,78.07
2023-04-10T04:16:54.366Z,78.13
2023-04-10T04:18:01.374Z,78.15
2023-04-10T04:19:08.842Z,78.11
2023-04-10T04:20:17.734Z,78.21
2023-04-10T04:21:21.746Z,78.06
2023-04-10T04:22:42.032Z,78.07
2023-04-10T04:24:55.216Z,77.94
2023-04-10T04:26:17.202Z,77.97
2023-04-10T04:27:24.169Z,77.93
2023-04-10T04:28:30.320Z,77.92
2023-04-10T04:29:34.451Z,77.89
2023-04-10T04:30:44.209Z,77.79
2023-04-10T04:31:54.283Z,77.77
2023-04-10T04:32:58.394Z,77.83
2023-04-10T04:34:02.644Z,77.87
2023-04-10T04:35:07.472Z,77.88
2023-04-10T04:36:14.192Z,77.78
2023-04-10T04:38:39.593Z,77.68
2023-04-10T04:40:02.258Z,77.79
2023-04-10T04:42:30.584Z,77.73
2023-04-10T04:43:37.965Z,77.89
2023-04-10T04:44:42.599Z,77.84
2023-04-10T04:45:47.034Z,77.85
2023-04-10T04:48:03.879Z,77.73
2023-04-10T04:49:07.831Z,77.87
2023-04-10T04:51:26.654Z,77.78
2023-04-10T04:52:33.764Z,78.03
2023-04-10T04:53:43.961Z,78.01
2023-04-10T04:55:03.127Z,77.98
2023-04-10T04:56:22.216Z,77.83
2023-04-10T04:57:43.289Z,77.68
2023-04-10T04:58:56.567Z,77.43
2023-04-10T05:00:15.751Z,77.29
2023-04-10T05:01:24.791Z,77.37
2023-04-10T05:02:31.867Z,77.21
2023-04-10T05:03:39.080Z,77.11
2023-04-10T05:04:59.676Z,77.19
2023-04-10T05:06:22.051Z,77.22
2023-04-10T05:07:38.283Z,77.07
2023-04-10T05:08:48.456Z,77.24
2023-04-10T05:10:10.278Z,77.24
2023-04-10T05:11:14.922Z,77.44
2023-04-10T05:13:30.266Z,77.41
2023-04-10T05:14:34.315Z,77.22
2023-04-10T05:15:41.814Z,77.16
2023-04-10T05:16:46.393Z,77.27
2023-04-10T05:17:53.912Z,77.22
2023-04-10T05:19:14.393Z,77.27
2023-04-10T05:20:35.851Z,77.20
2023-04-10T05:21:39.824Z,77.15
2023-04-10T05:22:49.695Z,77.01
2023-04-10T05:23:53.568Z,76.98
2023-04-10T05:25:00.215Z,77.04
2023-04-10T05:26:08.276Z,77.07
2023-04-10T05:27:16.423Z,77.08
2023-04-10T05:28:20.530Z,77.11
2023-04-10T05:30:34.263Z,77.37
2023-04-10T05:31:41.544Z,77.19
2023-04-10T05:32:51.431Z,77.05
2023-04-10T05:34:12.275Z,77.07
2023-04-10T05:35:22.409Z,77.19
2023-04-10T05:36:32.762Z,77.30
2023-04-10T05:37:45.464Z,77.49
2023-04-10T05:38:58.963Z,77.59
2023-04-10T05:40:03.574Z,77.60
2023-04-10T05:41:08.136Z,77.55
2023-04-10T05:42:14.980Z,77.51
2023-04-10T05:43:24.855Z,77.34
2023-04-10T05:44:30.042Z,77.24
2023-04-10T05:45:34.745Z,77.12
2023-04-10T05:46:39.121Z,77.02
2023-04-10T05:47:43.419Z,76.73
2023-04-10T05:48:47.450Z,76.67
2023-04-10T05:50:09.920Z,76.65
2023-04-10T05:52:23.237Z,76.76
2023-04-10T05:53:36.768Z,76.84
2023-04-10T05:54:44.169Z,76.74
2023-04-10T05:56:05.085Z,76.48
2023-04-10T05:58:24.006Z,76.35
2023-04-10T05:59:26.051Z,76.44
2023-04-10T06:01:51.478Z,76.54
2023-04-10T06:02:53.789Z,76.54
2023-04-10T06:03:58.016Z,76.48
2023-04-10T06:05:00.554Z,76.14
2023-04-10T06:06:06.532Z,76.18
2023-04-10T06:07:11.770Z,76.20
2023-04-10T06:08:15.258Z,76.27
2023-04-10T06:09:17.554Z,76.40
2023-04-10T06:10:21.033Z,76.58
2023-04-10T06:11:23.680Z,76.81
2023-04-10T06:12:28.212Z,76.89
2023-04-10T06:13:31.324Z,76.92
2023-04-10T06:14:34.716Z,77.04
2023-04-10T06:15:37.101Z,77.11
2023-04-10T06:16:39.611Z,76.91
2023-04-10T06:17:42.646Z,76.99
2023-04-10T06:18:44.830Z,77.06
2023-04-10T06:19:47.011Z,76.82
2023-04-10T06:20:49.169Z,76.81
2023-04-10T06:21:53.949Z,76.80
2023-04-10T06:22:55.585Z,76.91
2023-04-10T06:23:57.776Z,77.00
2023-04-10T06:24:59.828Z,76.75
2023-04-10T06:27:10.548Z,76.64
2023-04-10T06:28:13.110Z,76.78
2023-04-10T06:29:17.427Z,76.52
2023-04-10T06:30:20.146Z,76.48
2023-04-10T06:31:22.314Z,76.47
2023-04-10T06:32:24.549Z,76.41
2023-04-10T06:33:27.194Z,76.36
2023-04-10T06:34:29.351Z,76.33
2023-04-10T06:35:34.208Z,76.42
2023-04-10T06:36:37.081Z,76.41
2023-04-10T06:37:41.823Z,76.32
2023-04-10T06:38:44.024Z,76.34
2023-04-10T06:39:46.165Z,76.35
2023-04-10T06:40:48.888Z,76.40
2023-04-10T06:42:58.546Z,76.63
2023-04-10T06:44:03.730Z,76.65
2023-04-10T06:45:07.234Z,76.88
2023-04-10T06:46:10.434Z,76.60
2023-04-10T06:47:15.291Z,76.42
2023-04-10T06:48:17.445Z,76.35
2023-04-10T06:49:20.118Z,76.36
2023-04-10T06:50:22.951Z,76.30
2023-04-10T06:51:25.458Z,76.23
2023-04-10T06:52:27.630Z,76.22
2023-04-10T06:53:29.998Z,76.32
2023-04-10T06:54:32.593Z,76.07
2023-04-10T06:55:34.623Z,75.99
2023-04-10T06:56:36.911Z,76.16
2023-04-10T06:57:39.944Z,76.28
2023-04-10T06:58:42.247Z,76.48
2023-04-10T06:59:45.412Z,76.56
2023-04-10T07:00:47.943Z,76.49
2023-04-10T07:01:49.990Z,76.47
2023-04-10T07:02:52.608Z,76.46
2023-04-10T07:03:55.272Z,76.49
2023-04-10T07:04:58.094Z,76.48
2023-04-10T07:06:00.667Z,76.48
2023-04-10T07:07:03.045Z,76.41
2023-04-10T07:08:05.316Z,76.52
2023-04-10T07:09:07.525Z,76.53
2023-04-10T07:10:10.826Z,76.58
2023-04-10T07:11:13.026Z,76.66
2023-04-10T07:12:15.878Z,76.79
2023-04-10T07:13:18.890Z,76.86
2023-04-10T07:14:21.651Z,76.87
2023-04-10T07:15:24.001Z,76.91
2023-04-10T07:16:26.665Z,77.01
2023-04-10T07:17:29.333Z,77.18
2023-04-10T07:18:31.497Z,77.31
2023-04-10T07:19:34.251Z,77.43
2023-04-10T07:20:37.012Z,77.55
2023-04-10T07:21:38.993Z,77.63
2023-04-10T07:22:41.461Z,77.62
2023-04-10T07:23:43.611Z,77.46
2023-04-10T07:24:46.865Z,77.36
2023-04-10T07:25:49.424Z,77.31
2023-04-10T07:26:51.631Z,77.31
2023-04-10T07:27:53.676Z,77.37
2023-04-10T07:28:56.031Z,77.47
2023-04-10T07:29:58.471Z,77.52
2023-04-10T07:31:01.046Z,77.42
2023-04-10T07:32:03.425Z,77.42
2023-04-10T07:33:05.949Z,77.47
2023-04-10T07:34:10.769Z,77.55
2023-04-10T07:35:13.029Z,77.58
2023-04-10T07:36:15.537Z,77.63
2023-04-10T07:37:17.782Z,77.65
2023-04-10T07:38:19.852Z,77.71
2023-04-10T07:39:23.048Z,77.78
2023-04-10T07:40:25.956Z,77.86
2023-04-10T07:41:28.478Z,77.83
2023-04-10T07:42:31.554Z,77.84
2023-04-10T07:43:33.755Z,77.82
2023-04-10T07:44:35.887Z,77.86
2023-04-10T07:45:39.034Z,77.96
2023-04-10T07:46:41.627Z,78.10
2023-04-10T07:47:43.797Z,78.35
2023-04-10T07:48:45.926Z,78.37
2023-04-10T07:49:47.996Z,78.35
2023-04-10T07:50:51.056Z,78.33
2023-04-10T07:51:54.219Z,78.39
2023-04-10T07:52:56.104Z,78.46
2023-04-10T07:53:58.235Z,78.49
2023-04-10T07:55:04.852Z,78.45
2023-04-10T07:56:10.109Z,78.57
2023-04-10T07:57:12.567Z,78.83
2023-04-10T07:58:14.724Z,79.11
2023-04-10T07:59:16.779Z,79.19
2023-04-10T08:00:20.210Z,79.13
2023-04-10T08:01:23.429Z,79.15
2023-04-10T08:02:25.860Z,79.23
2023-04-10T08:03:28.976Z,79.29
2023-04-10T08:04:31.897Z,79.45
2023-04-10T08:05:34.951Z,79.49
2023-04-10T08:06:37.629Z,79.73
2023-04-10T08:07:39.685Z,79.97
2023-04-10T08:08:42.150Z,80.01
2023-04-10T08:09:45.044Z,80.25
2023-04-10T08:10:47.980Z,80.35
2023-04-10T08:11:50.320Z,80.41
2023-04-10T08:12:52.371Z,80.33
2023-04-10T08:13:56.061Z,80.21
2023-04-10T08:14:58.703Z,79.98
2023-04-10T08:16:01.975Z,79.74
2023-04-10T08:17:04.237Z,79.75
2023-04-10T08:18:06.295Z,79.49
2023-04-10T08:19:08.622Z,79.42
2023-04-10T08:20:12.315Z,79.06
2023-04-10T08:22:22.982Z,78.74
2023-04-10T08:23:25.447Z,78.72
2023-04-10T08:24:27.930Z,78.83
2023-04-10T08:25:30.123Z,78.70
2023-04-10T08:26:32.824Z,78.74
2023-04-10T08:27:34.922Z,78.71
2023-04-10T08:28:37.704Z,78.88
2023-04-10T08:30:48.048Z,78.77
2023-04-10T08:31:50.064Z,78.91
2023-04-10T08:32:52.206Z,78.60
2023-04-10T08:33:55.817Z,78.57
2023-04-10T08:34:58.291Z,78.37
2023-04-10T08:36:00.361Z,78.24
2023-04-10T08:37:07.864Z,78.56
2023-04-10T08:38:14.032Z,78.52
2023-04-10T08:39:14.741Z,78.53
2023-04-10T08:40:17.352Z,78.64
2023-04-10T08:41:20.884Z,77.99
2023-04-10T08:42:23.094Z,77.23
2023-04-10T08:43:26.386Z,76.94
2023-04-10T08:44:28.697Z,76.70
2023-04-10T08:45:30.832Z,76.06
2023-04-10T08:46:36.557Z,76.28
2023-04-10T08:47:42.203Z,76.30
2023-04-10T08:48:54.303Z,76.17
2023-04-10T08:50:00.190Z,75.54
2023-04-10T08:52:14.968Z,75.30
2023-04-10T08:53:19.510Z,75.22
2023-04-10T08:54:29.554Z,75.20
2023-04-10T08:55:32.107Z,74.90
2023-04-10T08:56:37.558Z,74.81
2023-04-10T08:57:42.850Z,74.38
2023-04-10T08:58:45.002Z,73.02
2023-04-10T08:59:48.940Z,73.00
2023-04-10T09:00:51.710Z,73.28
2023-04-10T09:01:54.035Z,72.94
2023-04-10T09:02:56.414Z,73.30
2023-04-10T09:04:00.219Z,72.79
2023-04-10T09:05:04.919Z,72.71
2023-04-10T09:06:08.584Z,72.90
2023-04-10T09:07:10.579Z,72.71
2023-04-10T09:08:15.453Z,72.54
2023-04-10T09:09:17.764Z,72.88
2023-04-10T09:10:20.480Z,73.08
2023-04-10T09:11:22.711Z,73.31
2023-04-10T09:12:24.719Z,72.96
2023-04-10T09:13:44.217Z,72.62
2023-04-10T09:14:46.438Z,72.50
2023-04-10T09:15:55.995Z,72.12
2023-04-10T09:17:19.891Z,71.86
2023-04-10T09:18:22.649Z,71.82
2023-04-10T09:20:42.996Z,72.10
2023-04-10T09:21:49.301Z,72.45
2023-04-10T09:22:52.127Z,72.19
2023-04-10T09:24:00.780Z,71.75
2023-04-10T09:25:03.990Z,71.55
2023-04-10T09:27:35.929Z,71.73
2023-04-10T09:28:55.948Z,72.25
2023-04-10T09:29:59.676Z,72.39
2023-04-10T09:31:02.545Z,72.48
2023-04-10T09:32:04.894Z,72.49
2023-04-10T09:33:25.085Z,72.44
2023-04-10T09:35:57.999Z,72.49
2023-04-10T09:37:01.932Z,72.71
2023-04-10T09:39:37.940Z,72.84
2023-04-10T09:40:40.254Z,72.92
2023-04-10T09:41:54.537Z,72.90
2023-04-10T09:42:56.741Z,72.85
2023-04-10T09:45:16.809Z,72.77
2023-04-10T09:46:28.054Z,72.41
2023-04-10T09:47:31.363Z,72.65
2023-04-10T09:48:33.544Z,72.35
2023-04-10T09:49:51.175Z,72.09
2023-04-10T09:50:53.421Z,72.10
2023-04-10T09:51:55.721Z,72.25
2023-04-10T09:52:57.732Z,71.96
2023-04-10T09:54:00.829Z,71.86
2023-04-10T09:56:14.876Z,72.02
2023-04-10T09:57:18.955Z,72.00
2023-04-10T09:58:23.921Z,72.26
2023-04-10T09:59:26.226Z,72.21
2023-04-10T10:00:28.753Z,71.93
2023-04-10T10:01:33.060Z,71.69
2023-04-10T10:02:38.011Z,71.50
2023-04-10T10:03:41.407Z,71.83
2023-04-10T10:04:45.668Z,71.54
2023-04-10T10:05:50.498Z,71.43
2023-04-10T10:06:53.234Z,71.51
2023-04-10T10:07:56.487Z,71.16
2023-04-10T10:09:03.887Z,71.31
2023-04-10T10:10:07.594Z,70.71
2023-04-10T10:11:10.243Z,70.72
2023-04-10T10:12:28.020Z,70.77
2023-04-10T10:16:35.396Z,71.58
2023-04-10T10:17:53.586Z,71.99
2023-04-10T10:19:19.564Z,72.21
2023-04-10T10:20:24.795Z,72.27
2023-04-10T10:21:28.696Z,71.44
2023-04-10T10:22:31.848Z,71.60
2023-04-10T10:23:36.089Z,71.78
2023-04-10T10:24:41.564Z,71.64
2023-04-10T10:25:45.393Z,71.39
2023-04-10T10:26:49.714Z,70.78
2023-04-10T10:27:55.180Z,70.64
2023-04-10T10:29:00.508Z,70.73
2023-04-10T10:30:12.019Z,70.37
2023-04-10T10:31:08.232Z,70.24
2023-04-10T10:32:12.730Z,69.89
2023-04-10T10:33:15.020Z,70.09
2023-04-10T10:34:17.929Z,70.29
2023-04-10T10:35:20.769Z,70.54
2023-04-10T10:36:24.869Z,70.81
2023-04-10T10:37:29.830Z,69.93
2023-04-10T10:38:33.366Z,70.35
2023-04-10T10:39:51.557Z,70.31
2023-04-10T10:41:18.773Z,70.09
2023-04-10T10:42:39.821Z,70.18
2023-04-10T10:45:14.790Z,69.33
2023-04-10T10:46:35.733Z,69.64
2023-04-10T10:50:07.386Z,70.24
2023-04-10T10:51:09.583Z,70.49
2023-04-10T10:52:11.717Z,70.29
2023-04-10T10:53:35.838Z,70.39
2023-04-10T10:54:47.134Z,70.48
2023-04-10T10:55:42.534Z,70.78
2023-04-10T10:56:44.917Z,70.62
2023-04-10T10:57:48.978Z,70.48
2023-04-10T10:58:56.559Z,70.43
2023-04-10T10:59:59.030Z,70.10
2023-04-10T11:01:07.852Z,70.11
2023-04-10T11:03:26.788Z,70.66
2023-04-10T11:05:57.158Z,70.42
2023-04-10T11:06:59.979Z,70.30
2023-04-10T11:08:07.123Z,70.00
2023-04-10T11:09:12.889Z,70.23
2023-04-10T11:10:15.791Z,70.50
2023-04-10T11:11:25.359Z,70.62
2023-04-10T11:12:27.652Z,70.66
2023-04-10T11:13:29.844Z,70.80
2023-04-10T11:14:33.632Z,70.86
2023-04-10T11:15:36.508Z,70.70
2023-04-10T11:16:42.386Z,70.60
2023-04-10T11:17:52.483Z,70.44
2023-04-10T11:20:04.164Z,70.28
2023-04-10T11:21:12.145Z,69.96
2023-04-10T11:22:14.368Z,70.06
2023-04-10T11:23:16.890Z,69.71
2023-04-10T11:24:19.587Z,69.49
2023-04-10T11:25:21.673Z,69.65
2023-04-10T11:26:39.961Z,69.93
2023-04-10T11:28:53.551Z,70.13
2023-04-10T11:29:56.041Z,70.02
2023-04-10T11:31:20.139Z,70.30
2023-04-10T11:32:22.483Z,69.90
2023-04-10T11:33:25.764Z,69.80
2023-04-10T11:34:28.957Z,69.83
2023-04-10T11:35:32.120Z,68.19
2023-04-10T11:36:37.045Z,68.12
2023-04-10T11:37:39.240Z,68.66
2023-04-10T11:38:43.181Z,68.32
2023-04-10T11:39:45.271Z,68.08
2023-04-10T11:42:12.003Z,67.82
2023-04-10T11:43:14.591Z,67.55
2023-04-10T11:44:31.718Z,67.89
2023-04-10T11:45:33.955Z,68.07
2023-04-10T11:46:41.714Z,66.01
2023-04-10T11:47:54.512Z,66.62
2023-04-10T11:49:00.366Z,66.11
2023-04-10T11:50:02.682Z,66.76
2023-04-10T11:51:10.190Z,66.72
2023-04-10T11:52:12.747Z,66.57
2023-04-10T11:53:19.665Z,66.69
2023-04-10T11:54:23.969Z,66.50
2023-04-10T11:55:38.889Z,66.72
2023-04-10T11:56:43.126Z,66.52
2023-04-10T11:57:45.337Z,66.32
2023-04-10T11:58:50.093Z,67.18
2023-04-10T11:59:52.218Z,67.59
2023-04-10T12:01:03.840Z,66.75
2023-04-10T12:03:34.657Z,67.23
2023-04-10T12:04:37.392Z,67.55
2023-04-10T12:06:57.578Z,66.96
2023-04-10T12:08:00.250Z,65.21
2023-04-10T12:09:06.549Z,65.40
2023-04-10T12:10:09.194Z,65.06
2023-04-10T12:11:11.860Z,64.54
2023-04-10T12:12:14.554Z,64.04
2023-04-10T12:13:27.318Z,64.03
2023-04-10T12:14:39.479Z,64.70
2023-04-10T12:15:41.870Z,64.36
2023-04-10T12:16:45.177Z,64.13
2023-04-10T12:17:47.909Z,63.94
2023-04-10T12:18:50.713Z,64.25
2023-04-10T12:19:53.595Z,64.54
2023-04-10T12:20:56.846Z,64.80
2023-04-10T12:21:59.731Z,65.46
2023-04-10T12:23:02.050Z,65.63
2023-04-10T12:24:04.937Z,65.41
2023-04-10T12:26:20.060Z,64.19
2023-04-10T12:27:25.084Z,63.75
2023-04-10T12:28:27.756Z,64.13
2023-04-10T12:29:29.929Z,63.64
2023-04-10T12:30:32.211Z,63.79
2023-04-10T12:31:36.201Z,63.59
2023-04-10T12:32:39.388Z,64.01
2023-04-10T12:33:46.507Z,63.84
2023-04-10T12:36:06.517Z,63.02
2023-04-10T12:37:09.249Z,61.72
2023-04-10T12:38:11.390Z,61.48
2023-04-10T12:39:24.163Z,61.64
2023-04-10T12:40:26.344Z,61.34
2023-04-10T12:41:31.016Z,60.43
2023-04-10T12:42:37.776Z,60.40
2023-04-10T12:43:41.782Z,59.99
2023-04-10T12:44:56.332Z,59.69
2023-04-10T12:45:58.659Z,58.78
2023-04-10T12:47:01.968Z,59.36
2023-04-10T12:48:04.228Z,59.60
2023-04-10T12:49:12.056Z,58.85
2023-04-10T12:51:47.976Z,58.66
2023-04-10T12:53:05.119Z,57.76
2023-04-10T12:54:07.324Z,57.35
2023-04-10T12:56:23.748Z,54.89
2023-04-10T12:57:26.609Z,55.52
2023-04-10T12:58:30.061Z,56.04
2023-04-10T12:59:32.376Z,56.01
2023-04-10T13:00:37.301Z,55.24
2023-04-10T13:01:39.632Z,55.19
2023-04-10T13:02:42.397Z,54.74
2023-04-10T13:03:44.985Z,53.91
2023-04-10T13:04:48.186Z,54.70
2023-04-10T13:05:51.478Z,54.32
2023-04-10T13:06:53.777Z,53.73
2023-04-10T13:07:56.400Z,53.09
2023-04-10T13:08:58.935Z,51.81
2023-04-10T13:10:01.012Z,52.13
2023-04-10T13:11:03.177Z,52.48
2023-04-10T13:12:05.349Z,52.22
2023-04-10T13:13:08.603Z,53.11
2023-04-10T13:14:10.733Z,53.40
2023-04-10T13:15:12.824Z,54.07
2023-04-10T13:16:16.220Z,54.63
2023-04-10T13:17:18.382Z,54.67
2023-04-10T13:18:20.885Z,53.87
2023-04-10T13:19:23.163Z,54.05
2023-04-10T13:20:26.222Z,54.00
2023-04-10T13:21:29.954Z,55.65
2023-04-10T13:22:32.110Z,56.68
2023-04-10T13:23:34.163Z,58.14
2023-04-10T13:24:36.866Z,58.73
2023-04-10T13:25:40.013Z,59.88
2023-04-10T13:26:42.525Z,59.46
2023-04-10T13:27:44.572Z,59.44
2023-04-10T13:28:47.189Z,60.37
2023-04-10T13:29:49.749Z,60.36
2023-04-10T13:30:51.824Z,59.95
2023-04-10T13:31:54.053Z,61.02
2023-04-10T13:32:56.250Z,60.28
2023-04-10T13:33:58.394Z,60.45
2023-04-10T13:35:00.593Z,61.17
2023-04-10T13:36:03.454Z,61.40
2023-04-10T13:37:05.829Z,61.66
2023-04-10T13:38:07.958Z,61.49
2023-04-10T13:39:10.065Z,59.81
2023-04-10T13:40:13.381Z,60.07
2023-04-10T13:41:15.424Z,58.50
2023-04-10T13:42:18.004Z,58.54
2023-04-10T13:43:20.583Z,59.33
2023-04-10T13:44:23.291Z,60.20
2023-04-10T13:45:26.306Z,60.39
2023-04-10T13:46:29.602Z,59.18
2023-04-10T13:47:31.921Z,59.48
2023-04-10T13:48:40.652Z,58.88
2023-04-10T13:49:38.367Z,58.96
2023-04-10T13:50:40.691Z,58.70
2023-04-10T13:51:46.745Z,58.42
2023-04-10T13:52:48.842Z,58.22
2023-04-10T13:53:50.879Z,59.18
2023-04-10T13:54:53.050Z,59.72
2023-04-10T13:55:55.756Z,59.11
2023-04-10T13:56:58.008Z,58.13
2023-04-10T13:57:59.974Z,58.27
2023-04-10T13:59:02.078Z,58.55
2023-04-10T14:00:07.188Z,58.85
2023-04-10T14:01:11.450Z,58.78
2023-04-10T14:02:14.116Z,58.12
2023-04-10T14:03:17.167Z,58.73
2023-04-10T14:04:19.981Z,59.02
2023-04-10T14:05:22.176Z,58.77
2023-04-10T14:06:24.463Z,58.13
2023-04-10T14:07:27.603Z,58.99
2023-04-10T14:08:30.012Z,59.72
2023-04-10T14:09:32.170Z,58.78
2023-04-10T14:10:34.326Z,58.57
2023-04-10T14:11:37.034Z,58.18
2023-04-10T14:12:39.300Z,58.31
2023-04-10T14:13:41.608Z,58.60
2023-04-10T14:14:44.348Z,58.37
2023-04-10T14:15:47.075Z,58.32
2023-04-10T14:16:50.616Z,58.49
2023-04-10T14:19:02.451Z,59.19
2023-04-10T14:20:06.209Z,58.96
2023-04-10T14:21:08.459Z,58.72
2023-04-10T14:22:11.707Z,57.99
2023-04-10T14:23:13.798Z,57.97
2023-04-10T14:24:16.523Z,59.05
2023-04-10T14:25:18.863Z,58.92
2023-04-10T14:26:21.556Z,58.69
2023-04-10T14:27:24.112Z,58.38
2023-04-10T14:28:26.285Z,58.83
2023-04-10T14:29:36.369Z,59.27
2023-04-10T14:30:32.672Z,58.66
2023-04-10T14:31:39.163Z,58.82
2023-04-10T14:32:39.344Z,59.01
2023-04-10T14:33:41.835Z,58.83
2023-04-10T14:34:44.104Z,58.33
2023-04-10T14:35:46.955Z,58.84
2023-04-10T14:36:49.297Z,57.79
2023-04-10T14:37:51.306Z,57.94
2023-04-10T14:38:54.077Z,57.43
2023-04-10T14:39:56.456Z,57.13
2023-04-10T14:40:58.621Z,57.13
2023-04-10T14:42:01.233Z,57.37
2023-04-10T14:43:03.396Z,57.46
2023-04-10T14:44:05.563Z,57.23
2023-04-10T14:45:08.641Z,57.23
2023-04-10T14:46:11.528Z,56.54
2023-04-10T14:47:13.684Z,56.42
2023-04-10T14:48:16.518Z,55.61
2023-04-10T14:49:19.864Z,55.69
2023-04-10T14:50:22.593Z,53.32
2023-04-10T14:51:24.660Z,53.33
2023-04-10T14:52:27.661Z,53.60
2023-04-10T14:53:30.303Z,53.52
2023-04-10T14:54:32.534Z,54.29
2023-04-10T14:55:34.729Z,54.97
2023-04-10T14:56:37.528Z,55.12
2023-04-10T14:57:39.699Z,54.71
2023-04-10T14:58:41.966Z,55.43
2023-04-10T14:59:44.141Z,53.94
2023-04-10T15:00:46.467Z,53.88
2023-04-10T15:01:48.961Z,52.85
2023-04-10T15:02:51.258Z,52.39
2023-04-10T15:03:54.161Z,52.67
2023-04-10T15:04:57.221Z,52.19
2023-04-10T15:06:00.412Z,52.46
2023-04-10T15:07:03.661Z,52.06
2023-04-10T15:08:06.153Z,51.95
2023-04-10T15:09:08.206Z,51.95
2023-04-10T15:10:11.363Z,52.26
2023-04-10T15:11:14.461Z,51.91